createdAt,value
2022-12-01T00:01:31.270Z,49.83
2022-12-01T00:03:58.515Z,56.72
2022-12-01T00:06:25.934Z,48.75
2022-12-01T00:09:15.302Z,55.75
2022-12-01T00:11:48.853Z,48.30
2022-12-01T00:14:16.456Z,48.97
2022-12-01T00:16:44.615Z,49.83
2022-12-01T00:19:12.020Z,50.03
2022-12-01T00:21:39.228Z,46.63
2022-12-01T00:24:09.402Z,43.15
2022-12-01T00:26:38.890Z,42.75
2022-12-01T00:29:06.117Z,46.70
2022-12-01T00:31:33.546Z,40.78
2022-12-01T00:34:03.025Z,49.30
2022-12-01T00:36:32.181Z,49.95
2022-12-01T00:38:59.325Z,48.17
2022-12-01T00:41:26.899Z,49.58
2022-12-01T00:43:54.194Z,47.85
2022-12-01T00:46:21.729Z,52.75
2022-12-01T00:48:49.486Z,51.20
2022-12-01T00:51:16.685Z,52.55
2022-12-01T00:53:43.916Z,50.10
2022-12-01T00:56:11.195Z,50.25
2022-12-01T00:58:38.446Z,44.38
2022-12-01T01:01:05.963Z,43.35
2022-12-01T01:03:34.697Z,47.95
2022-12-01T01:06:13.284Z,51.13
2022-12-01T01:08:41.137Z,47.67
2022-12-01T01:11:09.644Z,44.13
2022-12-01T01:13:37.980Z,43.05
2022-12-01T01:16:14.760Z,44.90
2022-12-01T01:18:42.084Z,49.58
2022-12-01T01:21:17.654Z,52.35
2022-12-01T01:23:45.129Z,43.40
2022-12-01T01:26:27.661Z,46.20
2022-12-01T01:29:00.760Z,54.65
2022-12-01T01:31:31.268Z,47.58
2022-12-01T01:33:59.451Z,45.53
2022-12-01T01:36:27.755Z,57.08
2022-12-01T01:38:55.787Z,46.45
2022-12-01T01:41:24.666Z,46.35
2022-12-01T01:44:03.183Z,45.70
2022-12-01T01:46:35.119Z,39.38
2022-12-01T01:49:14.347Z,44.50
2022-12-01T01:51:53.467Z,51.55
2022-12-01T01:54:31.478Z,47.83
2022-12-01T01:57:02.400Z,42.75
2022-12-01T01:59:42.144Z,44.50
2022-12-01T02:02:12.830Z,42.22
2022-12-01T02:04:51.039Z,39.65
2022-12-01T02:07:19.822Z,36.53
2022-12-01T02:09:47.676Z,45.67
2022-12-01T02:13:02.233Z,48.30
2022-12-01T02:16:00.011Z,45.88
2022-12-01T02:18:57.216Z,53.00
2022-12-01T02:22:00.582Z,54.00
2022-12-01T02:25:13.256Z,47.05
2022-12-01T02:28:43.368Z,51.53
2022-12-01T02:31:43.107Z,51.75
2022-12-01T02:34:33.855Z,46.10
2022-12-01T02:37:47.886Z,53.67
2022-12-01T02:40:31.554Z,44.08
2022-12-01T02:43:41.927Z,47.30
2022-12-01T02:46:32.809Z,46.45
2022-12-01T02:49:10.426Z,52.17
2022-12-01T02:51:44.619Z,45.47
2022-12-01T02:54:15.681Z,37.42
2022-12-01T02:56:45.664Z,43.35
2022-12-01T02:59:15.234Z,49.72
2022-12-01T03:02:15.378Z,46.85
2022-12-01T03:05:23.805Z,46.22
2022-12-01T03:08:26.880Z,46.33
2022-12-01T03:10:58.590Z,46.55
2022-12-01T03:13:56.160Z,40.92
2022-12-01T03:16:29.116Z,38.53
2022-12-01T03:19:05.596Z,49.08
2022-12-01T03:21:48.199Z,43.92
2022-12-01T03:24:20.392Z,47.42
2022-12-01T03:26:57.796Z,40.03
2022-12-01T03:29:43.591Z,39.75
2022-12-01T03:32:24.748Z,42.28
2022-12-01T03:35:04.755Z,48.75
2022-12-01T03:37:48.005Z,39.65
2022-12-01T03:40:25.564Z,45.80
2022-12-01T03:43:13.052Z,43.90
2022-12-01T03:46:33.029Z,46.45
2022-12-01T03:49:00.663Z,37.75
2022-12-01T03:51:55.522Z,41.05
2022-12-01T03:55:13.110Z,36.67
2022-12-01T03:58:02.833Z,36.90
2022-12-01T04:00:31.796Z,41.42
2022-12-01T04:03:04.141Z,37.65
2022-12-01T04:05:34.991Z,38.22
2022-12-01T04:08:02.727Z,36.03
2022-12-01T04:10:30.064Z,41.25
2022-12-01T04:12:59.687Z,36.80
2022-12-01T04:15:28.134Z,44.05
2022-12-01T04:17:55.592Z,40.97
2022-12-01T04:20:23.124Z,42.67
2022-12-01T04:22:50.563Z,39.85
2022-12-01T04:25:17.911Z,35.67
2022-12-01T04:27:45.090Z,40.60
2022-12-01T04:30:13.184Z,38.83
2022-12-01T04:32:43.186Z,39.90
2022-12-01T04:35:13.027Z,40.83
2022-12-01T04:37:41.431Z,35.38
2022-12-01T04:40:10.223Z,41.75
2022-12-01T04:42:37.396Z,46.08
2022-12-01T04:45:05.322Z,42.65
2022-12-01T04:47:32.512Z,43.55
2022-12-01T04:50:00.536Z,38.58
2022-12-01T04:52:33.628Z,40.75
2022-12-01T04:55:04.028Z,40.03
2022-12-01T04:57:31.177Z,35.75
2022-12-01T04:59:58.373Z,39.95
2022-12-01T05:02:25.605Z,37.17
2022-12-01T05:04:52.953Z,36.63
2022-12-01T05:07:20.182Z,37.15
2022-12-01T05:09:47.736Z,41.33
2022-12-01T05:12:17.130Z,41.47
2022-12-01T05:14:44.298Z,44.17
2022-12-01T05:17:11.503Z,42.08
2022-12-01T05:19:57.363Z,46.08
2022-12-01T05:22:56.804Z,45.72
2022-12-01T05:25:11.703Z,50.97
2022-12-01T05:27:38.871Z,39.22
2022-12-01T05:30:07.330Z,44.60
2022-12-01T05:32:34.493Z,46.65
2022-12-01T05:35:01.709Z,40.72
2022-12-01T05:37:34.576Z,45.70
2022-12-01T05:40:02.286Z,44.30
2022-12-01T05:42:29.484Z,45.60
2022-12-01T05:44:56.818Z,47.40
2022-12-01T05:47:23.984Z,45.20
2022-12-01T05:49:51.562Z,49.95
2022-12-01T05:52:18.852Z,50.10
2022-12-01T05:54:46.003Z,48.58
2022-12-01T05:57:13.174Z,45.55
2022-12-01T05:59:40.363Z,46.10
2022-12-01T06:02:07.626Z,44.22
2022-12-01T06:04:35.020Z,55.47
2022-12-01T06:07:02.219Z,57.47
2022-12-01T06:09:29.402Z,46.83
2022-12-01T06:11:56.783Z,41.38
2022-12-01T06:14:24.506Z,41.38
2022-12-01T06:16:52.111Z,46.17
2022-12-01T06:19:19.382Z,42.47
2022-12-01T06:21:46.531Z,45.45
2022-12-01T06:24:13.740Z,46.95
2022-12-01T06:26:40.966Z,47.15
2022-12-01T06:29:10.702Z,46.55
2022-12-01T06:31:41.042Z,44.70
2022-12-01T06:34:08.446Z,41.83
2022-12-01T06:36:35.623Z,43.97
2022-12-01T06:39:10.145Z,44.05
2022-12-01T06:41:39.235Z,48.08
2022-12-01T06:44:06.528Z,48.22
2022-12-01T06:46:33.743Z,45.42
2022-12-01T06:49:00.925Z,41.45
2022-12-01T06:51:28.623Z,39.22
2022-12-01T06:53:59.743Z,47.65
2022-12-01T06:56:31.045Z,49.45
2022-12-01T06:58:58.666Z,42.45
2022-12-01T07:01:26.678Z,47.10
2022-12-01T07:03:54.829Z,48.22
2022-12-01T07:06:22.108Z,43.40
2022-12-01T07:08:49.429Z,48.88
2022-12-01T07:11:16.890Z,43.50
2022-12-01T07:13:49.476Z,38.33
2022-12-01T07:16:16.796Z,43.75
2022-12-01T07:18:45.101Z,43.20
2022-12-01T07:21:15.171Z,45.35
2022-12-01T07:23:43.646Z,38.53
2022-12-01T07:26:18.519Z,37.78
2022-12-01T07:28:46.156Z,44.55
2022-12-01T07:31:19.856Z,41.13
2022-12-01T07:33:47.198Z,44.83
2022-12-01T07:36:15.339Z,44.17
2022-12-01T07:38:42.764Z,44.67
2022-12-01T07:41:14.874Z,46.40
2022-12-01T07:43:42.796Z,39.63
2022-12-01T07:46:23.824Z,50.30
2022-12-01T07:48:53.912Z,43.17
2022-12-01T07:51:24.408Z,41.88
2022-12-01T07:53:53.861Z,44.50
2022-12-01T07:56:23.336Z,38.92
2022-12-01T07:58:51.444Z,46.92
2022-12-01T08:01:23.359Z,41.65
2022-12-01T08:03:56.691Z,43.85
2022-12-01T08:06:26.683Z,41.60
2022-12-01T08:08:54.028Z,44.58
2022-12-01T08:11:25.048Z,49.03
2022-12-01T08:13:53.980Z,36.03
2022-12-01T08:16:24.260Z,43.72
2022-12-01T08:18:51.886Z,40.03
2022-12-01T08:21:23.182Z,36.50
2022-12-01T08:23:58.260Z,39.47
2022-12-01T08:26:26.864Z,39.72
2022-12-01T08:28:54.064Z,42.92
2022-12-01T08:31:31.110Z,40.97
2022-12-01T08:33:58.702Z,35.92
2022-12-01T08:36:26.233Z,46.13
2022-12-01T08:38:55.957Z,39.05
2022-12-01T08:41:24.847Z,49.55
2022-12-01T08:44:01.306Z,46.72
2022-12-01T08:46:34.893Z,39.20
2022-12-01T08:49:05.750Z,38.20
2022-12-01T08:51:33.271Z,45.20
2022-12-01T08:54:01.377Z,39.22
2022-12-01T08:56:40.516Z,39.88
2022-12-01T08:59:08.455Z,49.00
2022-12-01T09:01:51.986Z,42.85
2022-12-01T09:04:25.851Z,43.45
2022-12-01T09:06:56.980Z,42.50
2022-12-01T09:09:29.369Z,52.13
2022-12-01T09:11:57.787Z,40.00
2022-12-01T09:14:24.970Z,48.80
2022-12-01T09:16:52.218Z,50.28
2022-12-01T09:19:24.528Z,47.75
2022-12-01T09:21:53.168Z,49.40
2022-12-01T09:24:20.392Z,40.97
2022-12-01T09:26:47.781Z,46.25
2022-12-01T09:29:16.983Z,51.08
2022-12-01T09:31:44.757Z,42.88
2022-12-01T09:34:18.192Z,46.70
2022-12-01T09:36:47.692Z,45.47
2022-12-01T09:39:20.651Z,49.00
2022-12-01T09:42:13.833Z,50.55
2022-12-01T09:44:53.750Z,42.58
2022-12-01T09:47:44.956Z,48.35
2022-12-01T09:50:23.946Z,51.60
2022-12-01T09:53:08.565Z,49.28
2022-12-01T09:55:36.504Z,49.70
2022-12-01T09:58:17.832Z,46.03
2022-12-01T10:00:46.998Z,51.17
2022-12-01T10:03:22.242Z,51.38
2022-12-01T10:06:26.765Z,47.95
2022-12-01T10:09:25.684Z,46.60
2022-12-01T10:12:06.735Z,41.50
2022-12-01T10:14:37.446Z,42.80
2022-12-01T10:17:40.445Z,44.92
2022-12-01T10:21:01.591Z,45.83
2022-12-01T10:24:06.783Z,45.22
2022-12-01T10:27:23.448Z,41.97
2022-12-01T10:30:29.089Z,38.05
2022-12-01T10:33:18.424Z,42.25
2022-12-01T10:35:45.925Z,38.03
2022-12-01T10:38:36.936Z,38.85
2022-12-01T10:41:12.323Z,41.80
2022-12-01T10:43:49.095Z,42.85
2022-12-01T10:46:41.329Z,44.33
2022-12-01T10:49:14.038Z,46.65
2022-12-01T10:51:58.156Z,32.80
2022-12-01T10:54:41.269Z,34.45
2022-12-01T10:57:17.788Z,35.40
2022-12-01T11:00:02.777Z,33.72
2022-12-01T11:02:32.575Z,36.83
2022-12-01T11:05:20.931Z,32.00
2022-12-01T11:07:49.799Z,40.35
2022-12-01T11:10:29.189Z,37.40
2022-12-01T11:13:34.021Z,35.85
2022-12-01T11:16:06.623Z,35.97
2022-12-01T11:18:39.138Z,32.80
2022-12-01T11:21:27.882Z,38.92
2022-12-01T11:23:56.785Z,36.03
2022-12-01T11:26:33.211Z,36.83
2022-12-01T11:29:27.581Z,34.65
2022-12-01T11:31:56.126Z,37.92
2022-12-01T11:34:34.601Z,37.80
2022-12-01T11:37:17.127Z,38.53
2022-12-01T11:39:48.342Z,29.38
2022-12-01T11:42:34.308Z,36.55
2022-12-01T11:45:24.942Z,36.65
2022-12-01T11:48:21.163Z,33.25
2022-12-01T11:51:19.455Z,39.55
2022-12-01T11:53:47.405Z,38.55
2022-12-01T11:56:28.671Z,31.02
2022-12-01T11:59:15.646Z,40.17
2022-12-01T12:02:21.110Z,46.65
2022-12-01T12:06:38.837Z,43.40
2022-12-01T12:09:21.696Z,38.17
2022-12-01T12:12:26.644Z,45.05
2022-12-01T12:15:44.272Z,38.70
2022-12-01T12:19:00.406Z,34.75
2022-12-01T12:22:05.223Z,38.75
2022-12-01T12:25:27.431Z,33.30
2022-12-01T12:28:52.643Z,32.38
2022-12-01T12:32:26.738Z,37.00
2022-12-01T12:35:06.048Z,38.97
2022-12-01T12:38:09.091Z,35.47
2022-12-01T12:41:15.852Z,41.60
2022-12-01T12:44:30.016Z,37.17
2022-12-01T12:47:31.582Z,45.38
2022-12-01T12:50:45.188Z,42.15
2022-12-01T12:53:27.035Z,42.58
2022-12-01T12:56:04.673Z,41.17
2022-12-01T12:58:47.446Z,50.10
2022-12-01T13:01:40.492Z,44.97
2022-12-01T13:04:18.371Z,36.63
2022-12-01T13:07:18.983Z,38.20
2022-12-01T13:10:00.788Z,38.60
2022-12-01T13:12:41.872Z,36.92
2022-12-01T13:15:20.723Z,39.05
2022-12-01T13:18:29.303Z,35.75
2022-12-01T13:20:58.438Z,36.85
2022-12-01T13:23:26.370Z,36.80
2022-12-01T13:26:00.482Z,34.13
2022-12-01T13:29:04.557Z,34.35
2022-12-01T13:31:49.396Z,32.67
2022-12-01T13:34:40.571Z,35.85
2022-12-01T13:37:15.859Z,31.60
2022-12-01T13:39:45.306Z,33.83
2022-12-01T13:42:26.980Z,35.20
2022-12-01T13:45:07.073Z,35.08
2022-12-01T13:47:57.038Z,36.13
2022-12-01T13:51:03.621Z,38.35
2022-12-01T13:53:39.466Z,32.20
2022-12-01T13:56:43.967Z,33.67
2022-12-01T14:00:03.268Z,35.03
2022-12-01T14:02:39.777Z,37.78
2022-12-01T14:05:24.914Z,35.10
2022-12-01T14:07:54.638Z,36.40
2022-12-01T14:10:31.357Z,34.17
2022-12-01T14:13:06.573Z,34.45
2022-12-01T14:15:42.678Z,32.40
2022-12-01T14:18:56.814Z,38.40
2022-12-01T14:21:49.590Z,38.97
2022-12-01T14:24:35.342Z,42.13
2022-12-01T14:27:05.603Z,38.85
2022-12-01T14:29:38.806Z,45.60
2022-12-01T14:32:09.114Z,42.85
2022-12-01T14:34:39.039Z,34.10
2022-12-01T14:37:19.772Z,41.95
2022-12-01T14:40:13.590Z,41.28
2022-12-01T14:43:05.862Z,35.20
2022-12-01T14:45:48.400Z,36.55
2022-12-01T14:48:26.959Z,41.97
2022-12-01T14:51:27.986Z,43.86
2022-12-01T14:53:58.289Z,36.17
2022-12-01T14:56:27.375Z,31.90
2022-12-01T14:59:13.692Z,30.60
2022-12-01T15:01:41.607Z,34.55
2022-12-01T15:04:08.862Z,33.42
2022-12-01T15:06:37.916Z,36.92
2022-12-01T15:09:36.171Z,32.53
2022-12-01T15:12:09.400Z,33.67
2022-12-01T15:14:49.374Z,34.50
2022-12-01T15:17:34.636Z,36.42
2022-12-01T15:20:03.942Z,40.53
2022-12-01T15:22:34.101Z,42.90
2022-12-01T15:25:14.976Z,43.70
2022-12-01T15:27:44.140Z,45.50
2022-12-01T15:30:18.783Z,47.00
2022-12-01T15:32:46.413Z,43.30
2022-12-01T15:35:23.630Z,42.42
2022-12-01T15:37:53.461Z,51.67
2022-12-01T15:43:23.111Z,41.03
2022-12-01T15:46:10.873Z,49.95
2022-12-01T15:48:38.969Z,47.67
2022-12-01T15:51:28.341Z,42.08
2022-12-01T15:54:01.461Z,43.65
2022-12-01T15:56:41.376Z,48.58
2022-12-01T15:59:12.803Z,48.67
2022-12-01T16:01:44.294Z,47.30
2022-12-01T16:04:35.387Z,46.47
2022-12-01T16:07:10.835Z,47.50
2022-12-01T16:10:00.737Z,44.00
2022-12-01T16:12:37.099Z,46.83
2022-12-01T16:15:18.663Z,44.78
2022-12-01T16:17:53.817Z,48.08
2022-12-01T16:20:33.828Z,44.33
2022-12-01T16:23:15.464Z,48.60
2022-12-01T16:25:47.846Z,42.08
2022-12-01T16:28:35.762Z,39.17
2022-12-01T16:31:05.710Z,47.80
2022-12-01T16:33:38.800Z,44.92
2022-12-01T16:36:06.907Z,48.13
2022-12-01T16:38:34.168Z,37.60
2022-12-01T16:41:15.703Z,44.13
2022-12-01T16:43:59.208Z,44.83
2022-12-01T16:46:30.244Z,44.90
2022-12-01T16:48:57.519Z,37.60
2022-12-01T16:51:35.590Z,41.45
2022-12-01T16:54:10.373Z,42.72
2022-12-01T16:56:37.550Z,44.17
2022-12-01T16:59:04.981Z,44.67
2022-12-01T17:01:32.957Z,41.50
2022-12-01T17:04:04.675Z,46.05
2022-12-01T17:06:34.556Z,48.53
2022-12-01T17:09:01.764Z,40.78
2022-12-01T17:11:28.913Z,42.83
2022-12-01T17:13:56.083Z,46.88
2022-12-01T17:16:23.408Z,48.47
2022-12-01T17:18:50.686Z,47.78
2022-12-01T17:21:18.183Z,47.33
2022-12-01T17:23:45.779Z,42.42
2022-12-01T17:26:19.160Z,50.50
2022-12-01T17:28:47.146Z,48.53
2022-12-01T17:31:15.615Z,43.65
2022-12-01T17:33:43.225Z,47.85
2022-12-01T17:36:15.850Z,47.47
2022-12-01T17:38:46.461Z,47.67
2022-12-01T17:41:21.943Z,47.03
2022-12-01T17:43:49.631Z,49.20
2022-12-01T17:46:17.323Z,49.22
2022-12-01T17:48:47.071Z,49.45
2022-12-01T17:51:15.472Z,56.50
2022-12-01T17:53:42.772Z,74.50
2022-12-01T17:56:14.260Z,49.15
2022-12-01T17:58:42.774Z,47.83
2022-12-01T18:01:17.528Z,45.30
2022-12-01T18:03:45.610Z,44.63
2022-12-01T18:06:14.035Z,48.67
2022-12-01T18:08:42.789Z,51.15
2022-12-01T18:11:16.961Z,55.50
2022-12-01T18:13:49.321Z,43.67
2022-12-01T18:16:25.605Z,48.83
2022-12-01T18:18:55.083Z,48.55
2022-12-01T18:21:25.236Z,49.55
2022-12-01T18:24:03.173Z,51.25
2022-12-01T18:26:35.643Z,45.60
2022-12-01T18:29:16.058Z,49.72
2022-12-01T18:31:43.632Z,48.83
2022-12-01T18:34:12.392Z,46.03
2022-12-01T18:36:41.699Z,47.35
2022-12-01T18:39:11.558Z,51.20
2022-12-01T18:41:39.901Z,50.70
2022-12-01T18:44:07.342Z,48.80
2022-12-01T18:46:35.167Z,45.00
2022-12-01T18:49:03.055Z,53.80
2022-12-01T18:51:34.900Z,48.97
2022-12-01T18:54:06.246Z,46.63
2022-12-01T18:56:34.442Z,47.70
2022-12-01T18:59:08.437Z,53.50
2022-12-01T19:01:43.941Z,47.75
2022-12-01T19:04:16.511Z,45.23
2022-12-01T19:06:46.028Z,48.95
2022-12-01T19:09:16.118Z,49.55
2022-12-01T19:11:44.332Z,51.17
2022-12-01T19:14:17.844Z,46.80
2022-12-01T19:16:47.007Z,49.05
2022-12-01T19:19:14.342Z,44.05
2022-12-01T19:21:42.881Z,48.78
2022-12-01T19:24:10.155Z,47.08
2022-12-01T19:26:37.707Z,48.00
2022-12-01T19:29:05.780Z,47.88
2022-12-01T19:31:33.041Z,46.88
2022-12-01T19:34:04.844Z,50.85
2022-12-01T19:36:32.120Z,47.35
2022-12-01T19:39:03.998Z,47.97
2022-12-01T19:41:34.619Z,47.42
2022-12-01T19:44:01.947Z,47.38
2022-12-01T19:46:29.184Z,42.38
2022-12-01T19:49:01.395Z,41.45
2022-12-01T19:51:40.179Z,42.38
2022-12-01T19:54:16.992Z,51.67
2022-12-01T19:56:44.930Z,45.25
2022-12-01T19:59:13.606Z,44.53
2022-12-01T20:01:41.537Z,48.53
2022-12-01T20:04:09.059Z,42.03
2022-12-01T20:06:37.848Z,41.00
2022-12-01T20:09:07.781Z,43.50
2022-12-01T20:11:36.241Z,42.70
2022-12-01T20:14:07.661Z,40.97
2022-12-01T20:16:35.270Z,43.38
2022-12-01T20:19:04.888Z,43.20
2022-12-01T20:21:42.140Z,48.78
2022-12-01T20:24:19.894Z,49.55
2022-12-01T20:26:56.655Z,51.60
2022-12-01T20:29:28.996Z,50.38
2022-12-01T20:32:00.149Z,52.25
2022-12-01T20:34:34.951Z,57.28
2022-12-01T20:37:03.041Z,56.17
2022-12-01T20:39:35.672Z,55.40
2022-12-01T20:42:05.986Z,51.85
2022-12-01T20:44:33.287Z,53.70
2022-12-01T20:47:00.811Z,47.95
2022-12-01T20:49:27.980Z,45.75
2022-12-01T20:51:55.253Z,48.28
2022-12-01T20:54:30.436Z,54.05
2022-12-01T20:56:58.938Z,44.45
2022-12-01T20:59:27.400Z,57.92
2022-12-01T21:01:55.527Z,49.72
2022-12-01T21:04:22.821Z,53.60
2022-12-01T21:06:50.191Z,47.72
2022-12-01T21:09:18.137Z,64.13
2022-12-01T21:12:08.561Z,59.67
2022-12-01T21:15:01.508Z,61.45
2022-12-01T21:18:05.156Z,57.30
2022-12-01T21:20:45.766Z,56.67
2022-12-01T21:23:16.318Z,61.60
2022-12-01T21:25:44.647Z,55.42
2022-12-01T21:28:22.340Z,61.15
2022-12-01T21:31:17.396Z,54.17
2022-12-01T21:33:44.779Z,65.47
2022-12-01T21:36:26.053Z,66.70
2022-12-01T21:39:15.539Z,65.45
2022-12-01T21:41:43.004Z,64.97
2022-12-01T21:44:21.553Z,61.22
2022-12-01T21:46:57.962Z,66.18
2022-12-01T21:49:40.072Z,69.75
2022-12-01T21:52:30.420Z,63.95
2022-12-01T21:55:17.644Z,71.65
2022-12-01T21:57:52.165Z,71.18
2022-12-01T22:00:28.704Z,64.78
2022-12-01T22:03:29.506Z,72.53
2022-12-01T22:09:31.391Z,68.10
2022-12-01T22:12:15.065Z,65.03
2022-12-01T22:14:42.309Z,67.38
2022-12-01T22:17:09.333Z,69.45
2022-12-01T22:19:46.783Z,77.55
2022-12-01T22:22:27.737Z,70.25
2022-12-01T22:25:07.446Z,67.45
2022-12-01T22:27:40.869Z,68.70
2022-12-01T22:30:07.930Z,67.00
2022-12-01T22:32:38.107Z,71.88
2022-12-01T22:35:45.273Z,68.55
2022-12-01T22:38:43.186Z,73.60
2022-12-01T22:41:16.527Z,73.15
2022-12-01T22:43:44.668Z,67.82
2022-12-01T22:46:26.379Z,76.47
2022-12-01T22:49:08.667Z,72.80
2022-12-01T22:51:59.974Z,65.00
2022-12-01T22:54:38.941Z,64.50
2022-12-01T22:57:19.106Z,62.30
2022-12-01T22:59:47.745Z,69.72
2022-12-01T23:02:35.589Z,73.20
2022-12-01T23:05:28.958Z,74.70
2022-12-01T23:07:57.522Z,72.65
2022-12-01T23:10:35.421Z,78.55
2022-12-01T23:13:23.126Z,70.63
2022-12-01T23:15:56.201Z,79.68
2022-12-01T23:18:32.018Z,79.53
2022-12-01T23:21:02.681Z,83.47
2022-12-01T23:23:37.183Z,82.47
2022-12-01T23:26:08.911Z,82.82
2022-12-01T23:28:39.363Z,73.07
2022-12-01T23:31:06.528Z,79.15
2022-12-01T23:33:35.497Z,79.70
2022-12-01T23:36:25.974Z,76.05
2022-12-01T23:39:02.142Z,72.85
2022-12-01T23:41:45.914Z,73.97
2022-12-01T23:44:49.657Z,70.53
2022-12-01T23:47:26.694Z,67.30
2022-12-01T23:50:03.162Z,75.18
2022-12-01T23:52:36.966Z,65.22
2022-12-01T23:55:28.869Z,63.60
2022-12-01T23:57:57.006Z,74.20
